Terminal Aerodrome Forecast
Issued by NWS

Home | Current Version | Previous Version | Text Only | Print | Product List | Glossary On
Versions: 1 2 3 4 5 6 7 8 9 10 11 12 13 14 15 16 17 18 19 20 21 22 23 24 25
548
FTUS45 KPIH 241725
TAFSUN
TAF
KSUN 241725Z 2418/2518 VRB05KT P6SM SCT015 BKN040 OVC080
     FM242000 13006KT P6SM VCSH SCT030 OVC050
     FM250300 32008KT P6SM SCT050=

USA.gov is the U.S. government's official web portal to all federal, state and local government web resources and services.